createdAt,value
2018-12-14T00:01:45.745Z,6.39
2018-12-14T00:04:14.215Z,6.41
2018-12-14T00:06:42.661Z,6.41
2018-12-14T00:09:11.234Z,6.46
2018-12-14T00:11:45.412Z,6.48
2018-12-14T00:14:10.349Z,6.50
2018-12-14T00:16:38.856Z,6.51
2018-12-14T00:19:07.341Z,6.53
2018-12-14T00:21:35.900Z,6.53
2018-12-14T00:24:04.373Z,6.55
2018-12-14T00:26:32.957Z,6.56
2018-12-14T00:29:01.428Z,6.55
2018-12-14T00:31:29.954Z,6.58
2018-12-14T00:33:58.466Z,6.53
2018-12-14T00:36:26.917Z,6.53
2018-12-14T00:38:55.510Z,6.55
2018-12-14T00:41:23.979Z,6.55
2018-12-14T00:43:52.458Z,6.55
2018-12-14T00:46:20.948Z,6.53
2018-12-14T00:48:49.437Z,6.55
2018-12-14T00:51:18.280Z,6.57
2018-12-14T00:53:46.782Z,6.56
2018-12-14T00:56:15.233Z,6.55
2018-12-14T00:58:43.704Z,6.57
2018-12-14T01:01:12.177Z,6.59
2018-12-14T01:03:40.693Z,6.60
2018-12-14T01:06:09.162Z,6.62
2018-12-14T01:08:37.654Z,6.63
2018-12-14T01:11:06.162Z,6.62
2018-12-14T01:13:34.666Z,6.66
2018-12-14T01:16:03.180Z,6.68
2018-12-14T01:18:31.675Z,6.73
2018-12-14T01:21:00.135Z,6.71
2018-12-14T01:23:28.609Z,6.70
2018-12-14T01:25:57.034Z,6.66
2018-12-14T01:28:25.493Z,6.69
2018-12-14T01:30:53.978Z,6.66
2018-12-14T01:33:22.547Z,6.57
2018-12-14T01:35:51.032Z,6.55
2018-12-14T01:38:19.638Z,6.50
2018-12-14T01:40:48.176Z,6.46
2018-12-14T01:43:16.666Z,6.43
2018-12-14T01:45:45.225Z,6.39
2018-12-14T01:48:13.800Z,6.40
2018-12-14T01:50:42.343Z,6.39
2018-12-14T01:53:16.430Z,6.42
2018-12-14T01:55:44.914Z,6.37
2018-12-14T01:58:13.354Z,6.43
2018-12-14T02:00:41.870Z,6.48
2018-12-14T02:03:10.393Z,6.54
2018-12-14T02:05:38.889Z,6.56
2018-12-14T02:08:07.334Z,6.56
2018-12-14T02:10:35.983Z,6.53
2018-12-14T02:13:04.474Z,6.55
2018-12-14T02:15:32.998Z,6.56
2018-12-14T02:18:01.493Z,6.58
2018-12-14T02:20:30.022Z,6.58
2018-12-14T02:22:58.507Z,6.59
2018-12-14T02:25:27.037Z,6.60
2018-12-14T02:27:55.523Z,6.62
2018-12-14T02:30:47.401Z,6.62
2018-12-14T02:33:15.887Z,6.54
2018-12-14T02:35:44.466Z,6.52
2018-12-14T02:38:12.932Z,6.45
2018-12-14T02:40:41.447Z,6.47
2018-12-14T02:43:09.909Z,6.47
2018-12-14T02:45:38.422Z,6.48
2018-12-14T02:48:06.911Z,6.48
2018-12-14T02:50:35.395Z,6.51
2018-12-14T02:53:03.890Z,6.49
2018-12-14T02:55:32.338Z,6.50
2018-12-14T02:58:00.873Z,6.51
2018-12-14T03:00:29.362Z,6.46
2018-12-14T03:02:57.878Z,6.46
2018-12-14T03:05:26.483Z,6.47
2018-12-14T03:07:55.003Z,6.54
2018-12-14T03:10:23.458Z,6.52
2018-12-14T03:12:52.096Z,6.56
2018-12-14T03:15:20.659Z,6.56
2018-12-14T03:17:49.297Z,6.59
2018-12-14T03:20:17.760Z,6.59
2018-12-14T03:22:46.281Z,6.61
2018-12-14T03:25:14.820Z,6.57
2018-12-14T03:27:43.413Z,6.49
2018-12-14T03:30:11.893Z,6.50
2018-12-14T03:32:40.497Z,6.50
2018-12-14T03:35:08.979Z,6.48
2018-12-14T03:37:37.665Z,6.44
2018-12-14T03:40:06.247Z,6.47
2018-12-14T03:42:34.826Z,6.51
2018-12-14T03:45:03.336Z,6.49
2018-12-14T03:47:31.977Z,6.50
2018-12-14T03:50:00.545Z,6.49
2018-12-14T03:52:29.117Z,6.51
2018-12-14T03:54:57.661Z,6.52
2018-12-14T03:57:26.196Z,6.57
2018-12-14T03:59:54.692Z,6.58
2018-12-14T04:02:23.273Z,6.60
2018-12-14T04:04:52.410Z,6.61
2018-12-14T04:07:20.913Z,6.63
2018-12-14T04:09:49.541Z,6.62
2018-12-14T04:12:18.143Z,6.64
2018-12-14T04:14:46.710Z,6.60
2018-12-14T04:17:15.383Z,6.56
2018-12-14T04:19:43.863Z,6.59
2018-12-14T04:22:12.387Z,6.65
2018-12-14T04:24:40.894Z,6.66
2018-12-14T04:27:09.383Z,6.69
2018-12-14T04:29:37.867Z,6.71
2018-12-14T04:32:06.374Z,6.73
2018-12-14T04:34:35.059Z,6.73
2018-12-14T04:37:03.668Z,6.76
2018-12-14T04:39:32.135Z,6.76
2018-12-14T04:42:00.779Z,6.80
2018-12-14T04:44:29.259Z,6.79
2018-12-14T04:46:58.419Z,6.77
2018-12-14T04:49:27.213Z,6.76
2018-12-14T04:51:55.788Z,6.76
2018-12-14T04:54:24.313Z,6.75
2018-12-14T04:56:52.912Z,6.72
2018-12-14T04:59:21.388Z,6.74
2018-12-14T05:01:49.947Z,6.76
2018-12-14T05:04:18.410Z,6.75
2018-12-14T05:06:46.886Z,6.74
2018-12-14T05:09:15.399Z,6.74
2018-12-14T05:11:43.900Z,6.74
2018-12-14T05:14:12.386Z,6.72
2018-12-14T05:16:40.957Z,6.71
2018-12-14T05:19:09.430Z,6.71
2018-12-14T05:21:38.680Z,6.69
2018-12-14T05:24:07.237Z,6.68
2018-12-14T05:26:36.258Z,6.69
2018-12-14T05:29:04.853Z,6.72
2018-12-14T05:31:33.394Z,6.75
2018-12-14T05:34:01.924Z,6.72
2018-12-14T05:36:30.489Z,6.70
2018-12-14T05:38:59.033Z,6.71
2018-12-14T05:41:27.503Z,6.71
2018-12-14T05:43:56.065Z,6.73
2018-12-14T05:46:24.663Z,6.73
2018-12-14T05:48:53.302Z,6.73
2018-12-14T05:51:21.989Z,6.70
2018-12-14T05:53:50.573Z,6.70
2018-12-14T05:56:19.141Z,6.70
2018-12-14T05:58:47.672Z,6.68
2018-12-14T06:01:26.101Z,6.67
2018-12-14T06:03:54.924Z,6.66
2018-12-14T06:06:24.575Z,6.69
2018-12-14T06:08:53.144Z,6.67
2018-12-14T06:11:22.627Z,6.65
2018-12-14T06:13:51.304Z,6.65
2018-12-14T06:16:20.871Z,6.69
2018-12-14T06:18:50.657Z,6.71
2018-12-14T06:21:19.226Z,6.75
2018-12-14T06:23:48.449Z,6.73
2018-12-14T06:26:17.373Z,6.72
2018-12-14T06:28:46.079Z,6.72
2018-12-14T06:31:14.596Z,6.71
2018-12-14T06:33:44.190Z,6.67
2018-12-14T06:36:13.331Z,6.64
2018-12-14T06:38:41.921Z,6.64
2018-12-14T06:41:10.505Z,6.67
2018-12-14T06:43:39.194Z,6.68
2018-12-14T06:46:07.727Z,6.65
2018-12-14T06:48:36.294Z,6.66
2018-12-14T06:51:05.204Z,6.65
2018-12-14T06:53:33.907Z,6.36
2018-12-14T06:56:02.463Z,6.67
2018-12-14T06:58:30.990Z,6.63
2018-12-14T07:00:59.500Z,6.64
2018-12-14T07:03:28.021Z,6.66
2018-12-14T07:05:56.570Z,6.66
2018-12-14T07:08:25.213Z,6.69
2018-12-14T07:10:53.754Z,6.70
2018-12-14T07:13:22.339Z,6.69
2018-12-14T07:15:50.950Z,6.67
2018-12-14T07:18:19.537Z,6.64
2018-12-14T07:20:48.287Z,6.62
2018-12-14T07:23:16.964Z,6.60
2018-12-14T07:25:45.564Z,6.60
2018-12-14T07:28:14.138Z,6.61
2018-12-14T07:30:42.730Z,6.62
2018-12-14T07:33:11.417Z,6.65
2018-12-14T07:35:42.049Z,6.62
2018-12-14T07:38:10.662Z,6.60
2018-12-14T07:40:39.208Z,6.64
2018-12-14T07:43:07.888Z,6.66
2018-12-14T07:45:36.564Z,6.65
2018-12-14T07:48:05.295Z,6.60
2018-12-14T07:50:33.780Z,6.64
2018-12-14T07:53:08.995Z,6.69
2018-12-14T07:55:33.029Z,5.83
2018-12-14T07:58:01.615Z,6.65
2018-12-14T08:00:30.152Z,6.63
2018-12-14T08:02:58.725Z,6.63
2018-12-14T08:05:27.363Z,6.66
2018-12-14T08:07:55.854Z,6.70
2018-12-14T08:10:24.738Z,6.75
2018-12-14T08:12:53.657Z,6.79
2018-12-14T08:15:22.334Z,6.79
2018-12-14T08:17:50.938Z,6.83
2018-12-14T08:20:19.448Z,6.85
2018-12-14T08:22:48.062Z,6.84
2018-12-14T08:25:16.769Z,6.87
2018-12-14T08:27:45.465Z,6.88
2018-12-14T08:30:13.450Z,6.90
2018-12-14T08:32:42.033Z,6.92
2018-12-14T08:35:10.740Z,6.89
2018-12-14T08:37:39.253Z,6.92
2018-12-14T08:40:08.447Z,6.90
2018-12-14T08:42:37.062Z,6.91
2018-12-14T08:45:06.153Z,6.89
2018-12-14T08:47:34.956Z,6.93
2018-12-14T08:50:03.505Z,6.95
2018-12-14T08:52:32.086Z,6.94
2018-12-14T08:55:00.691Z,6.93
2018-12-14T08:57:29.195Z,6.92
2018-12-14T08:59:57.838Z,6.91
2018-12-14T09:02:26.437Z,6.93
2018-12-14T09:04:55.014Z,6.92
2018-12-14T09:07:24.753Z,6.95
2018-12-14T09:09:53.494Z,6.99
2018-12-14T09:12:22.011Z,7.04
2018-12-14T09:14:50.620Z,7.07
2018-12-14T09:17:19.174Z,7.11
2018-12-14T09:19:48.810Z,7.16
2018-12-14T09:22:18.399Z,7.19
2018-12-14T09:24:46.961Z,7.21
2018-12-14T09:27:15.557Z,7.21
2018-12-14T09:29:44.096Z,7.20
2018-12-14T09:32:12.679Z,7.16
2018-12-14T09:34:41.614Z,7.11
2018-12-14T09:37:10.334Z,7.15
2018-12-14T09:39:38.881Z,7.16
2018-12-14T09:42:07.419Z,7.19
2018-12-14T09:44:36.028Z,7.20
2018-12-14T09:47:04.644Z,7.22
2018-12-14T09:49:33.193Z,7.25
2018-12-14T09:52:01.762Z,7.29
2018-12-14T09:54:30.321Z,7.26
2018-12-14T09:56:58.969Z,7.25
2018-12-14T09:59:27.505Z,7.24
2018-12-14T10:01:56.075Z,7.23
2018-12-14T10:04:24.611Z,7.26
2018-12-14T10:06:53.191Z,7.34
2018-12-14T10:09:21.842Z,7.39
2018-12-14T10:11:55.129Z,7.46
2018-12-14T10:14:21.021Z,7.45
2018-12-14T10:16:49.569Z,7.46
2018-12-14T10:22:04.478Z,7.51
2018-12-14T10:24:32.983Z,7.48
2018-12-14T10:27:01.682Z,7.48
2018-12-14T10:29:30.197Z,7.38
2018-12-14T10:31:58.709Z,7.40
2018-12-14T10:34:27.389Z,7.42
2018-12-14T10:36:55.905Z,7.48
2018-12-14T10:39:24.431Z,7.52
2018-12-14T10:41:53.218Z,7.53
2018-12-14T10:44:21.870Z,7.58
2018-12-14T10:46:50.383Z,7.62
2018-12-14T10:49:19.004Z,7.61
2018-12-14T10:51:47.767Z,7.59
2018-12-14T10:54:16.746Z,7.58
2018-12-14T10:56:45.253Z,7.56
2018-12-14T10:59:13.789Z,7.63
2018-12-14T11:01:47.449Z,7.68
2018-12-14T11:04:16.067Z,7.73
2018-12-14T11:06:44.668Z,7.66
2018-12-14T11:09:13.240Z,7.76
2018-12-14T11:11:41.824Z,7.74
2018-12-14T11:14:13.880Z,7.69
2018-12-14T11:16:41.090Z,7.64
2018-12-14T11:19:09.605Z,7.63
2018-12-14T11:21:38.261Z,7.59
2018-12-14T11:24:06.841Z,6.68
2018-12-14T11:26:35.367Z,7.52
2018-12-14T11:29:03.912Z,7.47
2018-12-14T11:31:32.566Z,7.47
2018-12-14T11:34:01.155Z,7.44
2018-12-14T11:36:29.710Z,7.50
2018-12-14T11:38:58.226Z,7.47
2018-12-14T11:41:27.111Z,7.40
2018-12-14T11:43:55.627Z,7.40
2018-12-14T11:46:24.189Z,7.41
2018-12-14T11:48:52.855Z,7.42
2018-12-14T11:51:24.624Z,7.38
2018-12-14T11:53:53.201Z,7.39
2018-12-14T11:56:21.827Z,7.30
2018-12-14T11:58:50.647Z,7.32
2018-12-14T12:13:54.616Z,7.32
2018-12-14T12:50:07.718Z,7.33
2018-12-14T13:20:14.918Z,6.81
2018-12-14T13:22:43.668Z,6.89
2018-12-14T13:25:12.303Z,7.03
2018-12-14T14:13:10.892Z,7.01
2018-12-14T14:15:39.684Z,7.07
2018-12-14T14:18:08.911Z,7.13
2018-12-14T14:20:37.758Z,7.18
2018-12-14T14:23:06.457Z,7.18
2018-12-14T14:25:36.618Z,7.21
2018-12-14T14:28:06.280Z,7.26
2018-12-14T14:36:36.449Z,7.19
2018-12-14T14:39:11.970Z,7.10
2018-12-14T14:42:02.059Z,7.12
2018-12-14T14:44:31.803Z,7.13
2018-12-14T14:47:19.600Z,7.11
2018-12-14T14:49:48.344Z,7.09
2018-12-14T14:52:17.136Z,7.13
2018-12-14T14:54:59.919Z,7.17
2018-12-14T15:00:50.460Z,7.12
2018-12-14T15:15:28.706Z,7.10
2018-12-14T15:17:57.284Z,7.15
2018-12-14T15:20:25.900Z,6.73
2018-12-14T15:22:54.572Z,7.20
2018-12-14T15:25:23.572Z,7.21
2018-12-14T15:27:52.253Z,7.22
2018-12-14T15:30:21.264Z,7.18
2018-12-14T15:32:54.402Z,7.13
2018-12-14T15:35:23.967Z,7.17
2018-12-14T15:37:53.436Z,7.17
2018-12-14T15:40:22.330Z,7.17
2018-12-14T15:42:51.395Z,7.19
2018-12-14T15:45:22.330Z,7.18
2018-12-14T15:47:51.938Z,7.19
2018-12-14T15:50:20.890Z,7.19
2018-12-14T15:52:49.666Z,7.17
2018-12-14T15:55:18.867Z,7.19
2018-12-14T15:57:48.298Z,7.21
2018-12-14T16:00:18.795Z,7.23
2018-12-14T16:02:48.079Z,7.25
2018-12-14T16:05:18.943Z,7.23
2018-12-14T16:07:48.136Z,7.20
2018-12-14T16:10:16.767Z,7.16
2018-12-14T16:12:45.591Z,7.13
2018-12-14T16:15:20.166Z,7.05
2018-12-14T16:17:45.410Z,7.04
2018-12-14T16:20:14.182Z,7.02
2018-12-14T16:22:43.499Z,7.00
2018-12-14T16:25:12.220Z,7.02
2018-12-14T16:27:41.023Z,7.04
2018-12-14T16:30:12.760Z,7.08
2018-12-14T16:32:41.827Z,7.11
2018-12-14T16:35:10.948Z,7.12
2018-12-14T16:37:40.153Z,7.13
2018-12-14T16:40:09.166Z,7.13
2018-12-14T17:51:33.887Z,6.63
2018-12-14T17:54:11.095Z,6.60
2018-12-14T17:56:41.009Z,6.56
2018-12-14T17:59:09.826Z,6.56
2018-12-14T18:01:42.044Z,6.56
2018-12-14T18:04:16.826Z,6.59
2018-12-14T18:06:57.713Z,6.58
2018-12-14T18:09:42.023Z,6.53
2018-12-14T18:12:11.991Z,6.54
2018-12-14T18:14:41.105Z,6.58
2018-12-14T18:17:09.697Z,6.56
2018-12-14T18:19:38.422Z,6.53
2018-12-14T18:22:06.981Z,6.57
2018-12-14T18:24:36.721Z,6.58
2018-12-14T18:27:05.556Z,6.59
2018-12-14T18:29:34.366Z,6.56
2018-12-14T18:32:03.029Z,6.58
2018-12-14T18:34:32.062Z,6.62
2018-12-14T18:37:00.680Z,6.65
2018-12-14T18:39:29.283Z,6.68
2018-12-14T18:41:57.806Z,6.65
2018-12-14T18:44:26.528Z,6.65
2018-12-14T18:46:55.112Z,6.64
2018-12-14T18:49:23.867Z,6.64
2018-12-14T18:51:53.115Z,6.66
2018-12-14T18:54:22.082Z,6.66
2018-12-14T18:56:50.803Z,6.59
2018-12-14T18:59:19.794Z,6.60
2018-12-14T19:01:48.347Z,6.56
2018-12-14T19:04:16.993Z,6.51
2018-12-14T19:06:45.559Z,6.46
2018-12-14T19:09:14.680Z,6.39
2018-12-14T19:11:43.352Z,6.31
2018-12-14T19:14:11.931Z,6.32
2018-12-14T19:16:40.482Z,6.23
2018-12-14T19:19:09.111Z,6.25
2018-12-14T19:21:37.774Z,6.28
2018-12-14T19:24:06.439Z,6.29
2018-12-14T19:26:34.955Z,5.51
2018-12-14T19:29:03.571Z,6.26
2018-12-14T19:31:32.191Z,6.30
2018-12-14T19:34:00.813Z,6.30
2018-12-14T19:36:29.448Z,6.28
2018-12-14T19:38:58.726Z,6.31
2018-12-14T19:41:27.330Z,6.32
2018-12-14T19:43:55.982Z,6.22
2018-12-14T19:46:24.529Z,6.21
2018-12-14T19:48:53.079Z,6.22
2018-12-14T19:51:21.621Z,6.11
2018-12-14T19:53:50.206Z,6.15
2018-12-14T19:56:18.735Z,6.18
2018-12-14T19:58:48.664Z,6.13
2018-12-14T20:01:17.232Z,6.12
2018-12-14T20:03:45.772Z,6.08
2018-12-14T20:06:14.346Z,6.03
2018-12-14T20:08:43.059Z,6.00
2018-12-14T20:11:11.539Z,6.00
2018-12-14T20:13:40.175Z,5.93
2018-12-14T20:16:12.699Z,5.93
2018-12-14T20:18:39.301Z,5.94
2018-12-14T20:21:08.027Z,5.89
2018-12-14T20:23:36.628Z,5.92
2018-12-14T20:26:05.239Z,5.92
2018-12-14T20:28:33.830Z,5.92
2018-12-14T20:31:02.502Z,5.94
2018-12-14T20:33:31.052Z,5.86
2018-12-14T20:35:59.659Z,5.86
2018-12-14T20:38:28.309Z,5.79
2018-12-14T20:40:56.886Z,5.73
2018-12-14T20:43:25.457Z,5.74
2018-12-14T20:45:54.107Z,5.72
2018-12-14T20:48:22.658Z,5.65
2018-12-14T20:50:51.271Z,5.64
2018-12-14T20:53:19.810Z,5.68
2018-12-14T20:55:48.492Z,5.64
2018-12-14T20:58:18.588Z,5.62
2018-12-14T21:00:47.192Z,5.60
2018-12-14T21:03:16.179Z,5.61
2018-12-14T21:05:46.399Z,5.59
2018-12-14T21:08:15.046Z,5.62
2018-12-14T21:10:43.588Z,5.65
2018-12-14T21:13:12.211Z,5.67
2018-12-14T21:15:40.888Z,5.69
2018-12-14T21:18:09.568Z,5.69
2018-12-14T21:20:38.114Z,5.70
2018-12-14T21:23:06.904Z,5.75
2018-12-14T21:25:35.521Z,5.81
2018-12-14T21:28:04.084Z,5.86
2018-12-14T21:30:32.818Z,5.86
2018-12-14T21:33:01.984Z,5.81
2018-12-14T21:35:30.608Z,5.84
2018-12-14T21:37:59.432Z,5.86
2018-12-14T21:40:28.010Z,5.91
2018-12-14T21:45:40.355Z,5.97
2018-12-14T21:48:08.891Z,5.93
2018-12-14T21:50:37.474Z,5.91
2018-12-14T21:53:06.244Z,5.85
2018-12-14T21:58:15.300Z,5.79
2018-12-14T22:00:55.902Z,5.84
2018-12-14T22:03:29.108Z,5.82
2018-12-14T22:06:06.150Z,5.87
2018-12-14T22:08:41.339Z,5.85
2018-12-14T22:11:14.474Z,5.86
2018-12-14T22:13:44.936Z,5.86
2018-12-14T22:16:17.399Z,5.86
2018-12-14T22:21:40.819Z,5.74
2018-12-14T22:24:09.338Z,5.66
2018-12-14T22:26:45.659Z,5.64
2018-12-14T22:29:16.711Z,5.69
2018-12-14T22:31:45.323Z,5.58
2018-12-14T22:34:13.881Z,5.63
2018-12-14T22:36:42.444Z,5.64
2018-12-14T22:39:11.094Z,5.67
2018-12-14T22:41:39.676Z,5.65
2018-12-14T22:44:08.205Z,5.67
2018-12-14T22:46:36.739Z,5.67
2018-12-14T22:49:05.297Z,5.66
2018-12-14T22:51:33.755Z,5.62
2018-12-14T22:54:02.375Z,5.61
2018-12-14T22:56:30.865Z,5.53
2018-12-14T22:58:59.376Z,5.54
2018-12-14T23:01:27.863Z,5.52
2018-12-14T23:03:56.474Z,5.53
2018-12-14T23:06:24.960Z,5.50
2018-12-14T23:08:53.709Z,5.57
2018-12-14T23:11:22.279Z,5.53
2018-12-14T23:13:50.872Z,5.51
2018-12-14T23:16:19.397Z,5.60
2018-12-14T23:18:47.908Z,5.61
2018-12-14T23:21:16.587Z,5.54
2018-12-14T23:23:45.189Z,5.51
2018-12-14T23:26:13.790Z,5.54
2018-12-14T23:28:42.427Z,5.53
2018-12-14T23:31:11.031Z,5.52
2018-12-14T23:33:39.674Z,5.52
2018-12-14T23:36:08.273Z,5.56
2018-12-14T23:38:36.927Z,5.50
2018-12-14T23:41:05.561Z,5.51
2018-12-14T23:43:34.154Z,5.50
2018-12-14T23:46:02.746Z,5.49
2018-12-14T23:48:31.287Z,5.51
2018-12-14T23:50:59.872Z,5.54
2018-12-14T23:53:28.426Z,5.52
2018-12-14T23:55:57.037Z,5.55
2018-12-14T23:58:25.553Z,5.46
